Time;durP1;ratioP1;P1;durP2;ratioP2;P2;SDS_P1;SDS_P2;PMS_P1;PMS_P2;Temp;Humidity;BMP_temperature;BMP_pressure;BME280_temperature;BME280_humidity;BME280_pressure;Samples;Min_cycle;Max_cycle;Signal;HPM_P1;HPM_P2
2023/06/01 00:00:33;;;;;;;14.60;10.38;;;26.10;52.80;;;;;;10494522;28;20045;-25
2023/06/01 00:05:35;;;;;;;17.90;12.80;;;26.00;53.40;;;;;;10496436;28;20067;-23
2023/06/01 00:10:37;;;;;;;21.00;14.15;;;25.90;52.80;;;;;;10498106;28;20165;-25
2023/06/01 00:15:40;;;;;;;15.52;11.25;;;25.90;52.60;;;;;;10512382;28;20060;-23
2023/06/01 00:20:44;;;;;;;16.77;12.27;;;25.90;52.90;;;;;;10504793;28;20076;-23
2023/06/01 00:25:45;;;;;;;17.10;12.65;;;25.80;52.70;;;;;;10498072;28;20045;-25
2023/06/01 00:30:49;;;;;;;11.85;9.30;;;25.80;52.70;;;;;;10505598;28;20132;-23
2023/06/01 00:35:51;;;;;;;12.88;9.65;;;25.70;52.70;;;;;;10528177;28;20623;-26
2023/06/01 00:40:53;;;;;;;12.30;9.10;;;25.70;53.00;;;;;;10495953;28;20048;-27
2023/06/01 00:45:56;;;;;;;11.85;8.30;;;25.60;52.60;;;;;;10497456;28;20071;-24
2023/06/01 00:50:58;;;;;;;12.30;9.23;;;25.60;52.70;;;;;;10496973;28;20123;-25
2023/06/01 00:56:00;;;;;;;10.50;8.23;;;25.50;52.80;;;;;;10502452;28;20090;-24
2023/06/01 01:01:04;;;;;;;14.02;9.02;;;25.50;52.80;;;;;;10495086;28;20048;-25
2023/06/01 01:06:11;;;;;;;10.80;8.23;;;25.50;52.80;;;;;;10496775;28;20079;-25
2023/06/01 01:11:19;;;;;;;9.63;7.65;;;25.40;52.70;;;;;;10483728;28;20057;-23
2023/06/01 01:16:29;;;;;;;9.43;7.05;;;25.30;52.60;;;;;;10492916;28;20052;-23
2023/06/01 01:21:37;;;;;;;9.57;6.70;;;25.30;53.00;;;;;;10495904;28;20409;-25
2023/06/01 01:26:51;;;;;;;9.10;5.90;;;25.20;52.90;;;;;;10498889;28;20048;-23
2023/06/01 01:31:56;;;;;;;8.40;6.15;;;25.20;52.90;;;;;;10509689;28;20048;-25
2023/06/01 01:36:59;;;;;;;6.97;5.50;;;25.10;52.90;;;;;;10503227;28;20059;-26
2023/06/01 01:42:01;;;;;;;9.60;6.82;;;25.10;53.60;;;;;;10500704;28;20055;-24
2023/06/01 01:47:10;;;;;;;8.60;5.88;;;25.00;52.90;;;;;;10502589;28;20127;-26
2023/06/01 01:52:16;;;;;;;8.25;6.05;;;25.00;53.10;;;;;;10498133;28;20110;-25
2023/06/01 01:57:19;;;;;;;8.63;6.65;;;25.00;53.10;;;;;;10527077;28;20165;-26
2023/06/01 02:02:23;;;;;;;8.68;6.30;;;24.90;52.80;;;;;;10493052;28;20052;-23
2023/06/01 02:07:25;;;;;;;8.82;6.53;;;25.00;53.00;;;;;;10502216;28;20072;-24
2023/06/01 02:12:27;;;;;;;9.77;6.15;;;24.90;52.90;;;;;;10502010;28;20080;-25
2023/06/01 02:17:30;;;;;;;8.35;5.57;;;24.80;52.90;;;;;;10493072;28;20052;-24
2023/06/01 02:22:32;;;;;;;6.35;5.20;;;24.70;52.90;;;;;;10493297;28;20048;-23
2023/06/01 02:27:34;;;;;;;6.47;5.38;;;24.70;53.40;;;;;;10493460;28;20048;-24
2023/06/01 02:32:38;;;;;;;6.80;5.47;;;24.60;53.00;;;;;;10491470;28;20037;-26
2023/06/01 02:37:40;;;;;;;7.00;4.50;;;24.60;53.20;;;;;;10492223;28;20059;-24
2023/06/01 02:42:42;;;;;;;6.85;4.60;;;24.60;52.80;;;;;;10485325;28;20059;-24
2023/06/01 02:47:45;;;;;;;5.55;4.47;;;24.50;53.10;;;;;;10491753;28;20127;-24
2023/06/01 02:52:48;;;;;;;6.38;4.78;;;24.50;53.40;;;;;;10493136;28;20133;-25
2023/06/01 03:15:29;;;;;;;5.15;4.35;;;24.60;52.70;;;;;;10565497;27;20553;-24
2023/06/01 03:20:31;;;;;;;6.88;4.45;;;24.40;52.80;;;;;;10589995;28;20507;-24
2023/06/01 03:25:33;;;;;;;;;;;24.30;52.80;;;;;;10570333;28;20044;-23
2023/06/01 03:30:36;;;;;;;5.13;3.83;;;24.40;53.80;;;;;;10568714;28;19930;-26
2023/06/01 03:35:38;;;;;;;5.18;3.40;;;24.40;53.10;;;;;;10569393;28;20048;-25
2023/06/01 03:40:40;;;;;;;;;;;24.40;53.10;;;;;;10570608;28;20063;-24
2023/06/01 03:45:43;;;;;;;4.88;3.58;;;24.30;53.40;;;;;;10571813;28;20288;-24
2023/06/01 03:50:46;;;;;;;5.32;3.22;;;24.20;53.30;;;;;;10565711;28;20391;-25
2023/06/01 03:55:52;;;;;;;5.30;3.28;;;24.20;53.60;;;;;;10568508;28;20480;-23
2023/06/01 04:00:56;;;;;;;4.38;3.20;;;24.20;53.30;;;;;;10569083;28;20047;-23
2023/06/01 04:05:59;;;;;;;4.72;3.60;;;24.10;53.10;;;;;;10580345;28;20048;-24
2023/06/01 04:11:01;;;;;;;5.00;3.78;;;24.10;53.00;;;;;;10568613;28;20059;-24
2023/06/01 04:16:05;;;;;;;4.30;3.22;;;23.90;53.40;;;;;;10571651;28;20079;-25
2023/06/01 04:21:08;;;;;;;4.25;2.92;;;24.10;53.60;;;;;;10591851;28;20101;-24
2023/06/01 04:26:10;;;;;;;5.53;3.67;;;24.00;54.10;;;;;;10562563;28;20048;-23
2023/06/01 04:31:16;;;;;;;;;;;24.00;53.40;;;;;;10553264;28;20138;-24
2023/06/01 04:36:21;;;;;;;3.63;3.03;;;23.90;53.70;;;;;;10548072;28;19926;-25
2023/06/01 04:41:23;;;;;;;4.90;3.70;;;24.00;53.60;;;;;;10552776;28;20071;-25
2023/06/01 04:46:27;;;;;;;4.50;3.20;;;23.90;53.30;;;;;;10555406;28;20044;-25
2023/06/01 04:51:30;;;;;;;6.80;3.70;;;23.80;54.00;;;;;;10561594;28;20043;-25
2023/06/01 04:56:32;;;;;;;4.88;3.67;;;23.90;53.40;;;;;;10542590;28;20051;-24
2023/06/01 05:01:38;;;;;;;6.57;4.28;;;23.90;53.30;;;;;;10540617;28;20048;-32
2023/06/01 05:06:40;;;;;;;6.55;4.45;;;24.00;53.60;;;;;;10539138;28;20044;-24
2023/06/01 05:11:42;;;;;;;8.82;4.90;;;23.80;53.70;;;;;;10550886;28;20067;-25
2023/06/01 05:23:54;;;;;;;6.93;4.68;;;23.90;53.10;;;;;;10513554;28;20036;-29
2023/06/01 05:29:35;;;;;;;9.02;5.45;;;23.90;53.40;;;;;;10531348;28;20056;-25
2023/06/01 05:34:37;;;;;;;10.52;6.57;;;23.90;53.40;;;;;;10524460;28;20459;-25
2023/06/01 05:39:39;;;;;;;12.15;6.75;;;23.90;53.30;;;;;;10529659;28;20150;-25
2023/06/01 05:44:42;;;;;;;;;;;24.00;53.10;;;;;;10529555;28;20123;-25
2023/06/01 05:49:43;;;;;;;8.13;5.18;;;23.90;53.20;;;;;;10538659;28;19926;-25
2023/06/01 05:54:45;;;;;;;;;;;23.80;53.30;;;;;;10544495;28;20048;-24
2023/06/01 05:59:49;;;;;;;9.52;4.47;;;23.90;53.40;;;;;;10534400;28;19919;-22
2023/06/01 06:04:51;;;;;;;13.63;4.15;;;23.80;53.50;;;;;;10543193;28;20531;-24
2023/06/01 06:09:53;;;;;;;10.07;5.15;;;23.80;53.50;;;;;;10537737;28;20075;-22
2023/06/01 06:14:56;;;;;;;11.10;6.55;;;23.80;53.30;;;;;;10532372;28;20120;-24
2023/06/01 06:19:58;;;;;;;13.15;6.97;;;23.80;53.10;;;;;;10533782;28;20062;-23
2023/06/01 06:25:00;;;;;;;9.93;5.38;;;23.70;53.20;;;;;;10544048;28;20047;-24
2023/06/01 06:30:04;;;;;;;14.00;8.00;;;23.70;53.20;;;;;;10533606;28;20040;-25
2023/06/01 06:35:07;;;;;;;14.02;7.35;;;23.70;53.10;;;;;;10536322;28;20457;-23
2023/06/01 06:40:10;;;;;;;13.25;7.75;;;23.60;53.10;;;;;;10533748;28;20052;-25
2023/06/01 06:45:13;;;;;;;11.52;7.28;;;23.80;53.10;;;;;;10536317;28;20044;-24
2023/06/01 06:50:15;;;;;;;13.13;7.32;;;23.70;53.10;;;;;;10531797;28;20469;-23
2023/06/01 06:55:18;;;;;;;13.57;6.53;;;23.70;52.90;;;;;;10537492;28;20044;-25
2023/06/01 07:00:23;;;;;;;14.45;7.72;;;23.60;53.20;;;;;;10543352;28;20044;-25
2023/06/01 07:05:25;;;;;;;13.27;6.97;;;23.80;53.00;;;;;;10551538;28;20036;-24
2023/06/01 07:10:27;;;;;;;9.95;5.68;;;23.80;53.00;;;;;;10538505;28;20149;-24
2023/06/01 07:15:30;;;;;;;6.00;3.80;;;23.90;52.70;;;;;;10530480;28;20101;-25
2023/06/01 07:20:32;;;;;;;4.57;3.45;;;23.90;53.10;;;;;;10531885;28;20072;-25
2023/06/01 07:25:34;;;;;;;11.60;5.15;;;24.10;52.80;;;;;;10543952;28;20127;-24
2023/06/01 07:30:37;;;;;;;10.30;5.75;;;24.10;53.10;;;;;;10542105;28;20131;-26
2023/06/01 07:35:39;;;;;;;7.22;3.58;;;23.90;53.30;;;;;;10547525;28;20087;-27
2023/06/01 07:40:41;;;;;;;6.70;3.28;;;24.40;53.20;;;;;;10543948;28;20056;-23
2023/06/01 07:45:45;;;;;;;6.38;3.03;;;24.50;53.00;;;;;;10536028;28;20113;-23
2023/06/01 07:50:46;;;;;;;4.65;3.53;;;24.50;52.70;;;;;;10532367;28;20468;-24
2023/06/01 07:55:50;;;;;;;;;;;24.40;53.00;;;;;;10533930;28;20050;-24
2023/06/01 08:00:53;;;;;;;8.20;3.20;;;24.50;52.40;;;;;;10531234;28;19923;-24
2023/06/01 08:05:57;;;;;;;13.98;4.95;;;24.50;52.40;;;;;;10550309;28;20052;-24
2023/06/01 08:10:59;;;;;;;11.07;5.38;;;24.30;52.50;;;;;;10552074;28;20513;-24
2023/06/01 08:16:02;;;;;;;9.10;4.85;;;24.30;52.50;;;;;;10540467;28;20055;-24
2023/06/01 08:21:05;;;;;;;6.45;4.35;;;24.10;53.20;;;;;;10539605;28;20094;-25
2023/06/01 08:26:06;;;;;;;5.85;3.88;;;24.20;52.60;;;;;;10538843;28;20405;-24
2023/06/01 08:31:10;;;;;;;6.15;3.55;;;24.10;52.80;;;;;;10550976;28;20555;-24
2023/06/01 08:36:12;;;;;;;9.88;3.85;;;24.30;52.90;;;;;;10552742;28;20101;-23
2023/06/01 08:41:17;;;;;;;;;;;24.40;51.30;;;;;;10544558;28;20072;-25
2023/06/01 08:46:22;;;;;;;6.03;3.85;;;24.30;52.60;;;;;;10551504;28;19920;-24
2023/06/01 08:51:26;;;;;;;8.43;4.05;;;24.50;52.20;;;;;;10548338;28;20047;-23
2023/06/01 08:56:29;;;;;;;7.00;4.20;;;24.30;51.20;;;;;;10540489;28;20571;-24
2023/06/01 09:01:32;;;;;;;7.88;3.90;;;24.20;52.90;;;;;;10545598;28;20044;-23
2023/06/01 09:06:34;;;;;;;10.85;3.83;;;24.10;52.50;;;;;;10551874;28;20040;-24
2023/06/01 09:11:36;;;;;;;;;;;23.40;52.60;;;;;;10550070;28;20079;-24
2023/06/01 09:16:39;;;;;;;5.13;3.35;;;23.80;53.90;;;;;;10530661;28;19924;-24
2023/06/01 09:21:41;;;;;;;11.20;4.78;;;24.40;52.60;;;;;;10538688;28;20133;-24
2023/06/01 09:26:43;;;;;;;;;;;24.10;52.60;;;;;;10541107;28;20056;-24
2023/06/01 09:31:48;;;;;;;5.93;3.58;;;24.40;52.30;;;;;;10544650;28;19920;-25
2023/06/01 09:36:51;;;;;;;10.90;3.53;;;23.40;54.50;;;;;;10547372;28;20043;-24
2023/06/01 09:41:55;;;;;;;6.63;3.72;;;23.40;53.60;;;;;;10543553;28;20052;-23
2023/06/01 09:46:59;;;;;;;6.38;3.03;;;23.50;54.90;;;;;;10548855;28;20056;-24
2023/06/01 09:52:14;;;;;;;6.50;3.33;;;24.20;53.00;;;;;;10536570;28;20185;-23
2023/06/01 09:57:21;;;;;;;4.13;3.10;;;23.60;54.70;;;;;;10540952;28;21047;-24
2023/06/01 10:02:25;;;;;;;11.55;3.00;;;24.30;52.90;;;;;;10546691;28;20113;-23
2023/06/01 10:07:29;;;;;;;7.82;3.70;;;23.10;53.20;;;;;;10549289;28;20051;-24
2023/06/01 10:12:32;;;;;;;8.40;3.05;;;21.60;51.90;;;;;;10541007;28;20063;-23
2023/06/01 10:17:38;;;;;;;4.43;2.75;;;22.30;55.50;;;;;;10530272;28;20032;-24
2023/06/01 10:22:42;;;;;;;4.68;2.85;;;23.20;55.20;;;;;;10535862;28;20548;-24
2023/06/01 10:27:59;;;;;;;8.85;3.55;;;23.00;56.50;;;;;;10533745;28;20087;-24
2023/06/01 10:33:02;;;;;;;8.85;3.38;;;22.00;57.40;;;;;;10531993;28;20054;-23
2023/06/01 10:38:22;;;;;;;5.95;3.33;;;23.00;51.90;;;;;;10549919;28;20130;-23
2023/06/01 10:43:43;;;;;;;5.40;3.10;;;23.50;55.00;;;;;;10546068;28;20044;-25
2023/06/01 10:48:56;;;;;;;8.13;2.70;;;23.50;53.90;;;;;;10532947;28;20084;-24
2023/06/01 10:54:27;;;;;;;5.28;2.40;;;22.10;56.10;;;;;;10522787;28;20051;-24
2023/06/01 10:59:29;;;;;;;6.72;2.17;;;22.20;57.50;;;;;;10531382;28;20066;-24
2023/06/01 11:04:38;;;;;;;;;;;22.60;56.30;;;;;;10551450;28;20534;-23
2023/06/01 11:09:45;;;;;;;6.88;2.50;;;23.10;54.60;;;;;;10531572;28;20002;-24
2023/06/01 11:15:11;;;;;;;5.82;2.42;;;22.90;54.50;;;;;;10529027;28;20071;-24
2023/06/01 11:20:20;;;;;;;5.45;2.53;;;24.00;52.20;;;;;;10539181;28;20050;-24
2023/06/01 11:25:22;;;;;;;6.43;2.30;;;24.00;53.80;;;;;;10540632;28;20040;-23
2023/06/01 11:30:24;;;;;;;3.88;2.40;;;24.50;52.80;;;;;;10525236;28;20200;-23
2023/06/01 11:35:27;;;;;;;5.18;2.20;;;24.70;51.90;;;;;;10538278;28;20154;-24
2023/06/01 11:40:29;;;;;;;6.07;2.38;;;24.50;52.10;;;;;;10529870;28;20055;-24
2023/06/01 11:45:31;;;;;;;4.28;2.15;;;24.10;52.40;;;;;;10545848;28;20105;-24
2023/06/01 11:50:36;;;;;;;6.82;3.03;;;24.40;52.90;;;;;;10537554;28;20040;-24
2023/06/01 11:55:49;;;;;;;6.25;2.25;;;24.60;53.30;;;;;;10533841;28;20625;-23
2023/06/01 12:00:52;;;;;;;2.60;1.60;;;23.80;53.50;;;;;;10535463;28;20048;-25
2023/06/01 12:05:55;;;;;;;4.20;2.08;;;24.50;50.90;;;;;;10534070;28;20044;-24
2023/06/01 12:10:57;;;;;;;4.18;1.92;;;23.40;53.00;;;;;;10540646;28;20109;-24
2023/06/01 12:16:00;;;;;;;3.15;1.58;;;24.10;53.70;;;;;;10538343;28;20538;-24
2023/06/01 12:21:11;;;;;;;4.78;1.73;;;23.40;51.60;;;;;;10547603;28;20086;-23
2023/06/01 12:26:13;;;;;;;4.03;1.95;;;24.00;54.70;;;;;;10544249;28;20447;-24
2023/06/01 12:31:17;;;;;;;3.33;1.77;;;24.70;52.90;;;;;;10556661;28;20044;-24
2023/06/01 12:36:32;;;;;;;3.70;1.10;;;25.10;52.20;;;;;;10553376;28;20050;-24
2023/06/01 12:41:34;;;;;;;3.83;1.48;;;24.50;52.70;;;;;;10552719;28;20044;-24
2023/06/01 12:46:36;;;;;;;2.95;1.40;;;24.30;53.80;;;;;;10546914;28;20044;-24
2023/06/01 12:51:39;;;;;;;7.50;1.40;;;24.60;51.70;;;;;;10541831;28;20048;-24
2023/06/01 12:56:41;;;;;;;3.00;0.88;;;23.50;53.80;;;;;;10541757;28;20132;-24
2023/06/01 13:01:43;;;;;;;1.30;1.02;;;23.90;54.90;;;;;;10542384;28;20443;-24
2023/06/01 13:06:46;;;;;;;2.08;1.00;;;24.20;53.90;;;;;;10545645;28;20079;-24
2023/06/01 13:11:48;;;;;;;4.13;0.98;;;25.30;52.30;;;;;;10536655;28;20077;-24
2023/06/01 13:16:50;;;;;;;1.80;0.80;;;25.30;52.20;;;;;;10535524;28;20671;-24
2023/06/01 13:21:54;;;;;;;2.42;1.00;;;25.30;51.70;;;;;;10537470;28;20043;-24
2023/06/01 13:26:55;;;;;;;1.08;0.77;;;25.30;51.60;;;;;;10536023;28;20739;-23
2023/06/01 13:31:57;;;;;;;1.25;0.80;;;25.30;52.20;;;;;;10534128;28;20504;-24
2023/06/01 13:37:01;;;;;;;2.50;1.27;;;25.50;51.60;;;;;;10541064;28;20073;-24
2023/06/01 13:42:05;;;;;;;0.65;0.65;;;25.30;51.70;;;;;;10544602;28;20044;-24
2023/06/01 13:47:07;;;;;;;3.28;1.00;;;25.80;50.60;;;;;;10535635;28;20041;-25
2023/06/01 13:52:11;;;;;;;2.45;0.80;;;26.00;50.80;;;;;;10539367;28;20044;-25
2023/06/01 13:57:13;;;;;;;1.33;0.60;;;26.20;50.90;;;;;;10547517;28;20397;-23
2023/06/01 14:02:15;;;;;;;1.88;0.43;;;26.30;50.80;;;;;;10535814;28;20243;-24
2023/06/01 14:07:18;;;;;;;4.13;0.65;;;25.20;52.00;;;;;;10531385;28;20125;-22
2023/06/01 14:12:20;;;;;;;2.05;0.82;;;25.70;52.10;;;;;;10542381;28;20459;-24
2023/06/01 14:17:22;;;;;;;3.70;0.82;;;26.00;51.80;;;;;;10534867;28;20048;-23
2023/06/01 14:22:25;;;;;;;1.75;0.70;;;25.70;52.10;;;;;;10544579;28;20466;-25
2023/06/01 14:27:27;;;;;;;4.25;0.80;;;26.20;51.40;;;;;;10535315;28;20139;-24
2023/06/01 14:32:29;;;;;;;2.47;1.17;;;26.30;51.00;;;;;;10533425;28;20044;-24
2023/06/01 14:37:32;;;;;;;5.80;1.08;;;25.90;51.90;;;;;;10534721;28;20555;-25
2023/06/01 14:42:35;;;;;;;2.67;1.10;;;25.90;50.60;;;;;;10521040;28;20058;-24
2023/06/01 14:47:37;;;;;;;1.92;0.98;;;25.60;52.50;;;;;;10532529;28;20055;-23
2023/06/01 14:52:40;;;;;;;1.88;0.80;;;26.50;50.50;;;;;;10524614;28;20044;-26
2023/06/01 14:57:43;;;;;;;4.03;0.77;;;26.10;50.00;;;;;;10536912;28;20056;-24
2023/06/01 15:02:46;;;;;;;6.63;2.33;;;25.30;51.40;;;;;;10539436;28;20089;-24
2023/06/01 15:07:49;;;;;;;1.92;0.98;;;25.80;51.10;;;;;;10549266;28;20075;-25
2023/06/01 15:12:52;;;;;;;4.90;1.00;;;26.00;51.20;;;;;;10543462;28;20131;-24
2023/06/01 15:17:54;;;;;;;1.77;0.93;;;24.50;51.40;;;;;;10540015;28;20488;-24
2023/06/01 15:22:58;;;;;;;2.85;1.10;;;25.30;51.00;;;;;;10536692;28;20759;-23
2023/06/01 15:28:00;;;;;;;2.15;0.80;;;26.30;50.60;;;;;;10536578;28;20395;-23
2023/06/01 15:33:02;;;;;;;5.60;0.90;;;25.90;50.10;;;;;;10532913;28;20506;-26
2023/06/01 15:38:05;;;;;;;4.25;0.90;;;26.20;50.00;;;;;;10539919;28;20143;-25
2023/06/01 15:43:07;;;;;;;2.45;1.00;;;25.90;49.70;;;;;;10532476;28;20057;-25
2023/06/01 15:48:09;;;;;;;1.77;0.90;;;26.30;49.80;;;;;;10530983;28;20147;-24
2023/06/01 15:53:12;;;;;;;1.08;0.82;;;25.90;50.70;;;;;;10531304;28;20458;-23
2023/06/01 15:58:16;;;;;;;2.97;1.10;;;26.10;50.20;;;;;;10540407;28;20126;-24
2023/06/01 16:03:18;;;;;;;3.25;1.30;;;26.70;49.40;;;;;;10533859;28;20044;-23
2023/06/01 16:08:21;;;;;;;3.35;1.02;;;26.50;49.60;;;;;;10528941;28;20044;-24
2023/06/01 16:13:23;;;;;;;4.88;1.20;;;25.40;48.50;;;;;;10533230;28;20040;-23
2023/06/01 16:18:25;;;;;;;3.40;1.25;;;25.80;50.30;;;;;;10535851;28;20143;-23
2023/06/01 16:23:28;;;;;;;4.25;1.30;;;24.90;51.90;;;;;;10537572;28;20047;-25
2023/06/01 16:28:30;;;;;;;9.63;1.67;;;24.30;54.00;;;;;;10543115;28;20063;-24
2023/06/01 16:33:32;;;;;;;3.47;0.82;;;24.60;52.00;;;;;;10551133;28;20043;-23
2023/06/01 16:38:35;;;;;;;2.90;0.88;;;25.70;51.70;;;;;;10546740;28;20067;-24
2023/06/01 16:43:39;;;;;;;3.22;1.10;;;26.00;51.10;;;;;;10543338;28;20162;-23
2023/06/01 16:48:41;;;;;;;5.50;1.50;;;24.30;52.00;;;;;;10550597;28;20071;-25
2023/06/01 16:53:44;;;;;;;7.80;1.17;;;25.70;50.60;;;;;;10544955;28;20129;-24
2023/06/01 16:58:46;;;;;;;4.20;1.15;;;25.90;50.70;;;;;;10533334;28;20056;-24
2023/06/01 17:03:48;;;;;;;6.70;1.40;;;26.20;50.40;;;;;;10536444;28;20078;-24
2023/06/01 17:08:52;;;;;;;4.93;1.52;;;26.20;50.60;;;;;;10537675;28;20067;-24
2023/06/01 17:13:54;;;;;;;8.38;1.52;;;26.50;53.20;;;;;;10535559;28;20515;-24
2023/06/01 17:18:56;;;;;;;6.32;1.35;;;26.60;59.40;;;;;;10537117;28;20473;-25
2023/06/01 17:23:59;;;;;;;18.42;3.22;;;26.40;59.40;;;;;;10534674;28;20040;-24
2023/06/01 17:29:01;;;;;;;16.42;1.90;;;26.30;52.20;;;;;;10539631;28;20489;-25
2023/06/01 17:34:04;;;;;;;15.90;2.55;;;24.30;58.20;;;;;;10537711;28;20135;-25
2023/06/01 17:39:07;;;;;;;19.95;1.77;;;26.00;53.40;;;;;;10541887;28;21417;-25
2023/06/01 17:44:09;;;;;;;11.75;1.88;;;26.70;50.40;;;;;;10536697;28;20048;-24
2023/06/01 17:49:11;;;;;;;12.82;2.45;;;26.30;50.10;;;;;;10541553;28;20496;-24
2023/06/01 17:54:16;;;;;;;11.30;2.45;;;26.70;53.00;;;;;;10537800;28;20047;-24
2023/06/01 17:59:18;;;;;;;5.07;1.48;;;26.90;51.10;;;;;;10547011;28;20089;-23
2023/06/01 18:04:20;;;;;;;3.45;1.30;;;26.20;51.70;;;;;;10534751;28;20143;-25
2023/06/01 18:09:24;;;;;;;5.07;1.55;;;26.40;50.90;;;;;;10535002;28;20453;-25
2023/06/01 18:14:26;;;;;;;6.05;1.13;;;26.40;51.00;;;;;;10549187;28;20066;-25
2023/06/01 18:19:28;;;;;;;3.85;1.27;;;26.10;51.20;;;;;;10543765;28;20043;-25
2023/06/01 18:24:32;;;;;;;4.07;1.33;;;25.70;51.00;;;;;;10555072;28;20071;-24
2023/06/01 18:29:34;;;;;;;2.78;1.23;;;26.00;50.90;;;;;;10545029;28;20402;-25
2023/06/01 18:34:35;;;;;;;5.93;1.25;;;26.10;50.80;;;;;;10554136;28;20078;-24
2023/06/01 18:39:39;;;;;;;6.45;1.75;;;26.40;50.30;;;;;;10549214;28;20061;-25
2023/06/01 18:44:41;;;;;;;4.57;1.13;;;26.00;50.40;;;;;;10539027;28;20051;-22
2023/06/01 18:49:46;;;;;;;6.15;1.85;;;26.00;50.40;;;;;;10549544;28;20097;-24
2023/06/01 18:54:49;;;;;;;4.55;1.15;;;26.00;50.40;;;;;;10537743;28;20131;-23
2023/06/01 18:59:51;;;;;;;2.33;1.10;;;25.70;49.50;;;;;;10547778;28;20052;-24
2023/06/01 19:05:01;;;;;;;3.03;0.85;;;25.70;51.00;;;;;;10533324;28;20151;-24
2023/06/01 19:10:08;;;;;;;2.90;0.82;;;25.90;50.50;;;;;;10529294;28;20055;-23
2023/06/01 19:15:11;;;;;;;5.20;1.48;;;24.70;52.30;;;;;;10527205;28;20094;-23
2023/06/01 19:20:58;;;;;;;4.05;1.38;;;25.60;51.10;;;;;;10540059;28;20058;-23
2023/06/01 19:26:06;;;;;;;7.25;0.73;;;25.90;50.00;;;;;;10482363;28;20160;-23
2023/06/01 19:31:08;;;;;;;8.57;0.98;;;24.70;51.20;;;;;;10538484;28;20397;-24
2023/06/01 19:36:42;;;;;;;10.20;1.55;;;24.80;48.50;;;;;;10532074;28;20062;-23
2023/06/01 19:41:47;;;;;;;7.72;1.83;;;24.80;50.50;;;;;;10519193;28;20048;-25
2023/06/01 19:46:49;;;;;;;7.40;0.93;;;25.90;49.80;;;;;;10528696;28;20055;-25
2023/06/01 19:51:51;;;;;;;5.35;0.93;;;25.10;50.80;;;;;;10527171;28;20060;-25
2023/06/01 19:56:58;;;;;;;7.05;1.25;;;25.50;50.10;;;;;;10535464;28;20052;-21
2023/06/01 20:02:01;;;;;;;8.05;1.63;;;25.70;49.50;;;;;;10539015;28;20047;-25
2023/06/01 20:07:04;;;;;;;8.18;1.50;;;25.80;49.30;;;;;;10538890;28;20044;-25
2023/06/01 20:12:08;;;;;;;5.60;1.20;;;24.90;50.50;;;;;;10546829;28;20113;-24
2023/06/01 20:17:11;;;;;;;3.47;1.00;;;25.60;49.40;;;;;;10536588;28;20097;-25
2023/06/01 20:22:13;;;;;;;5.63;1.25;;;25.10;47.90;;;;;;10529062;28;20071;-24
2023/06/01 20:27:16;;;;;;;5.22;1.02;;;25.40;49.60;;;;;;10547035;28;20047;-23
2023/06/01 20:32:18;;;;;;;6.07;1.42;;;25.40;49.50;;;;;;10543059;28;20477;-24
2023/06/01 20:37:21;;;;;;;3.97;1.20;;;25.50;49.40;;;;;;10549996;28;20131;-29
2023/06/01 20:42:24;;;;;;;5.32;0.90;;;25.00;48.20;;;;;;10539965;28;20047;-25
2023/06/01 20:47:26;;;;;;;4.53;1.55;;;25.30;49.70;;;;;;10545092;28;20412;-23
2023/06/01 20:52:28;;;;;;;5.45;1.73;;;25.30;50.00;;;;;;10550332;28;20093;-24
2023/06/01 20:57:31;;;;;;;8.23;3.28;;;25.30;49.90;;;;;;10548103;28;20124;-24
2023/06/01 21:02:33;;;;;;;5.38;1.75;;;25.30;50.20;;;;;;10546157;28;20474;-23
2023/06/01 21:07:35;;;;;;;4.53;2.22;;;25.20;49.90;;;;;;10558713;28;20044;-24
2023/06/01 21:12:40;;;;;;;5.50;2.88;;;25.20;50.30;;;;;;10541926;28;20454;-24
2023/06/01 21:17:46;;;;;;;5.32;2.70;;;25.00;50.70;;;;;;10544422;28;20064;-24
2023/06/01 21:22:47;;;;;;;7.00;2.88;;;25.20;50.20;;;;;;10525694;28;20496;-25
2023/06/01 21:27:51;;;;;;;4.25;2.55;;;25.10;50.20;;;;;;10531157;28;20040;-24
2023/06/01 21:32:53;;;;;;;7.50;2.67;;;25.10;50.30;;;;;;10526132;28;20546;-24
2023/06/01 21:37:54;;;;;;;6.70;2.78;;;25.00;50.30;;;;;;10535927;28;20090;-23
2023/06/01 21:42:58;;;;;;;6.45;2.78;;;24.90;50.60;;;;;;10535897;28;20044;-24
2023/06/01 21:48:00;;;;;;;11.10;3.20;;;25.00;50.20;;;;;;10522914;28;20047;-24
2023/06/01 21:53:02;;;;;;;9.05;3.47;;;25.00;50.20;;;;;;10514292;28;20463;-24
2023/06/01 21:58:06;;;;;;;8.65;4.18;;;25.00;50.20;;;;;;10532067;28;20043;-23
2023/06/01 22:03:08;;;;;;;9.13;3.88;;;24.90;50.20;;;;;;10535660;28;20451;-24
2023/06/01 22:08:10;;;;;;;9.20;4.40;;;24.90;50.10;;;;;;10530021;28;20082;-23
2023/06/01 22:13:13;;;;;;;9.18;4.10;;;24.80;50.20;;;;;;10534243;28;20095;-23
2023/06/01 22:18:15;;;;;;;9.05;4.20;;;24.80;50.30;;;;;;10532380;28;20105;-24
2023/06/01 22:23:19;;;;;;;6.68;3.83;;;24.80;50.60;;;;;;10532933;28;20044;-24
2023/06/01 22:28:22;;;;;;;6.82;3.75;;;24.70;50.30;;;;;;10536558;28;20063;-24
2023/06/01 22:33:24;;;;;;;8.45;4.63;;;24.60;50.50;;;;;;10538289;28;20484;-24
2023/06/01 22:38:26;;;;;;;7.40;3.88;;;24.60;50.40;;;;;;10542639;28;20047;-23
2023/06/01 22:43:30;;;;;;;9.05;5.07;;;24.60;50.40;;;;;;10540138;28;20484;-23
2023/06/01 22:48:33;;;;;;;7.03;4.18;;;24.60;50.30;;;;;;10537120;28;20048;-23
2023/06/01 22:53:35;;;;;;;7.38;4.35;;;24.50;50.30;;;;;;10533676;28;20051;-24
2023/06/01 22:58:38;;;;;;;6.75;3.78;;;24.40;50.60;;;;;;10532921;28;20614;-24
2023/06/01 23:03:40;;;;;;;7.93;4.28;;;24.30;50.70;;;;;;10536652;28;20114;-23
2023/06/01 23:08:48;;;;;;;8.07;4.10;;;24.30;50.70;;;;;;10529505;28;20477;-24
2023/06/01 23:13:52;;;;;;;6.82;3.85;;;24.30;50.60;;;;;;10528658;28;20530;-24
2023/06/01 23:18:55;;;;;;;7.63;4.75;;;24.30;50.60;;;;;;10523566;28;20113;-25
2023/06/01 23:23:57;;;;;;;6.90;3.50;;;24.30;50.60;;;;;;10533238;28;20036;-24
2023/06/01 23:29:03;;;;;;;;;;;24.30;50.70;;;;;;10536652;28;20492;-26
2023/06/01 23:34:06;;;;;;;9.13;5.22;;;24.20;50.80;;;;;;10543262;28;20272;-24
2023/06/01 23:39:10;;;;;;;9.60;4.22;;;24.20;50.60;;;;;;10542857;28;20083;-24
2023/06/01 23:44:13;;;;;;;9.98;5.30;;;24.20;50.60;;;;;;10542786;28;20048;-24
2023/06/01 23:49:15;;;;;;;7.05;4.22;;;24.20;50.40;;;;;;10540408;28;20515;-24
2023/06/01 23:54:17;;;;;;;7.85;3.97;;;24.10;50.70;;;;;;10538686;28;20385;-24
2023/06/01 23:59:20;;;;;;;8.05;4.18;;;24.10;50.70;;;;;;10544283;28;20047;-24
